Wetterdaten: Woche 04.04.11 - 10.04.11 (KW14)
Datum Zeit Temperatur Luftfeuchte Luftdruck Niederschlag Windrichtung Sonnenschein Solar Wind
04.04.2011 00:00 14,0 C 81 % 1011,9 hPa 0,0 l/m W 0,00 h 0 W/m 11,5 km/h (2 Bft)
04.04.2011 01:00 12,6 C 86 % 1011,9 hPa 0,0 l/m W 0,00 h 0 W/m 3,3 km/h (1 Bft)
04.04.2011 02:00 11,2 C 93 % 1011,9 hPa 0,0 l/m N 0,00 h 0 W/m 0,7 km/h (0 Bft)
04.04.2011 03:00 10,7 C 95 % 1011,5 hPa 0,0 l/m N 0,00 h 0 W/m 0,1 km/h (0 Bft)
04.04.2011 04:00 10,8 C 95 % 1010,8 hPa 0,0 l/m N 0,00 h 0 W/m 0,5 km/h (0 Bft)
04.04.2011 05:00 11,1 C 96 % 1010,7 hPa 0,2 l/m W-SW 0,00 h 0 W/m 2,5 km/h (1 Bft)
04.04.2011 06:00 11,0 C 94 % 1012,0 hPa 3,0 l/m N-NW 0,00 h 0 W/m 23,5 km/h (4 Bft)
04.04.2011 07:00 9,4 C 93 % 1013,9 hPa 3,4 l/m W-NW 0,00 h 5 W/m 21,3 km/h (4 Bft)
04.04.2011 08:00 8,4 C 94 % 1015,9 hPa 2,4 l/m W 0,00 h 11 W/m 16,1 km/h (3 Bft)
04.04.2011 09:00 7,8 C 94 % 1017,9 hPa 2,2 l/m W 0,00 h 23 W/m 17,3 km/h (3 Bft)
04.04.2011 10:00 7,2 C 94 % 1019,6 hPa 2,4 l/m W-NW 0,00 h 37 W/m 16,5 km/h (3 Bft)
04.04.2011 11:00 7,3 C 93 % 1020,5 hPa 0,6 l/m NW 0,00 h 134 W/m 11,7 km/h (2 Bft)
04.04.2011 12:00 8,5 C 86 % 1021,1 hPa 0,0 l/m NW 0,00 h 205 W/m 10,8 km/h (2 Bft)
04.04.2011 13:00 9,4 C 80 % 1021,5 hPa 0,0 l/m W 0,17 h 244 W/m 8,8 km/h (2 Bft)
04.04.2011 14:00 9,2 C 81 % 1021,8 hPa 0,0 l/m W 0,00 h 40 W/m 8,3 km/h (2 Bft)
04.04.2011 15:00 9,4 C 85 % 1022,1 hPa 0,0 l/m SW 0,08 h 182 W/m 11,3 km/h (2 Bft)
04.04.2011 16:00 9,8 C 85 % 1022,1 hPa 0,0 l/m SW 0,17 h 267 W/m 17,7 km/h (3 Bft)
04.04.2011 17:00 9,1 C 87 % 1022,3 hPa 0,0 l/m SW 0,08 h 123 W/m 15,6 km/h (3 Bft)
04.04.2011 18:00 9,1 C 86 % 1022,6 hPa 0,0 l/m SW 0,42 h 102 W/m 16,2 km/h (3 Bft)
04.04.2011 19:00 8,2 C 88 % 1023,1 hPa 0,0 l/m SW 0,00 h 13 W/m 12,2 km/h (2 Bft)
04.04.2011 20:00 7,6 C 92 % 1023,4 hPa 0,8 l/m W-SW 0,00 h 0 W/m 12,2 km/h (2 Bft)
04.04.2011 21:00 7,2 C 92 % 1023,8 hPa 0,0 l/m SW 0,00 h 0 W/m 7,4 km/h (2 Bft)
04.04.2011 22:00 7,1 C 93 % 1024,1 hPa 0,0 l/m N 0,00 h 0 W/m 2,3 km/h (1 Bft)
04.04.2011 23:00 6,9 C 95 % 1024,5 hPa 0,0 l/m N 0,00 h 0 W/m 0,9 km/h (0 Bft)
05.04.2011 00:00 6,7 C 96 % 1024,9 hPa 0,0 l/m SW 0,00 h 0 W/m 2,7 km/h (1 Bft)
05.04.2011 01:00 6,8 C 96 % 1025,2 hPa 0,4 l/m SW 0,00 h 0 W/m 2,7 km/h (1 Bft)
05.04.2011 02:00 6,6 C 96 % 1025,3 hPa 0,0 l/m S-SW 0,00 h 0 W/m 6,6 km/h (2 Bft)
05.04.2011 03:00 6,1 C 96 % 1025,6 hPa 0,0 l/m SW 0,00 h 0 W/m 5,9 km/h (2 Bft)
05.04.2011 04:00 5,8 C 98 % 1025,6 hPa 0,0 l/m S-SW 0,00 h 0 W/m 7,4 km/h (2 Bft)
05.04.2011 05:00 5,8 C 98 % 1026,1 hPa 0,0 l/m SW 0,00 h 0 W/m 6,8 km/h (2 Bft)
05.04.2011 06:00 5,8 C 98 % 1026,4 hPa 0,0 l/m SW 0,00 h 0 W/m 9,0 km/h (2 Bft)
05.04.2011 07:00 5,4 C 98 % 1026,9 hPa 0,0 l/m SW 0,00 h 31 W/m 6,0 km/h (2 Bft)
05.04.2011 08:00 5,5 C 99 % 1027,7 hPa 0,0 l/m S-SW 0,67 h 212 W/m 7,2 km/h (2 Bft)
05.04.2011 09:00 7,1 C 96 % 1027,4 hPa 0,0 l/m S 1,00 h 386 W/m 11,8 km/h (2 Bft)
05.04.2011 10:00 8,7 C 89 % 1028,0 hPa 0,0 l/m W-SW 0,08 h 207 W/m 12,9 km/h (3 Bft)
05.04.2011 11:00 10,4 C 80 % 1028,0 hPa 0,0 l/m W-SW 0,58 h 487 W/m 13,2 km/h (3 Bft)
05.04.2011 12:00 12,5 C 69 % 1027,3 hPa 0,0 l/m S-SW 0,83 h 785 W/m 16,5 km/h (3 Bft)
05.04.2011 13:00 13,3 C 61 % 1026,8 hPa 0,0 l/m W-SW 0,75 h 612 W/m 16,2 km/h (3 Bft)
05.04.2011 14:00 14,0 C 54 % 1026,8 hPa 0,0 l/m W-NW 1,00 h 726 W/m 14,6 km/h (3 Bft)
05.04.2011 15:00 14,6 C 49 % 1026,5 hPa 0,0 l/m W 1,00 h 558 W/m 10,1 km/h (2 Bft)
05.04.2011 16:00 15,0 C 48 % 1025,8 hPa 0,0 l/m S-SW 1,00 h 387 W/m 10,6 km/h (2 Bft)
05.04.2011 17:00 14,8 C 45 % 1025,8 hPa 0,0 l/m SW 0,42 h 192 W/m 11,6 km/h (2 Bft)
05.04.2011 18:00 14,1 C 52 % 1026,0 hPa 0,0 l/m SW 0,00 h 71 W/m 9,8 km/h (2 Bft)
05.04.2011 19:00 13,3 C 55 % 1026,0 hPa 0,0 l/m SW 0,00 h 15 W/m 6,9 km/h (2 Bft)
05.04.2011 20:00 12,7 C 60 % 1026,4 hPa 0,0 l/m W-SW 0,00 h 0 W/m 9,3 km/h (2 Bft)
05.04.2011 21:00 12,3 C 63 % 1026,6 hPa 0,0 l/m W-SW 0,00 h 0 W/m 10,3 km/h (2 Bft)
05.04.2011 22:00 11,7 C 63 % 1026,9 hPa 0,0 l/m W-SW 0,00 h 0 W/m 5,2 km/h (1 Bft)
05.04.2011 23:00 11,4 C 70 % 1027,2 hPa 0,0 l/m W-NW 0,00 h 0 W/m 4,7 km/h (1 Bft)
06.04.2011 00:00 11,1 C 72 % 1027,2 hPa 0,0 l/m W-NW 0,00 h 0 W/m 3,5 km/h (1 Bft)
06.04.2011 01:00 9,6 C 80 % 1027,3 hPa 0,0 l/m N 0,00 h 0 W/m 0,7 km/h (0 Bft)
06.04.2011 02:00 9,5 C 84 % 1027,1 hPa 0,0 l/m N 0,00 h 0 W/m 0,9 km/h (0 Bft)
06.04.2011 03:00 9,4 C 89 % 1027,0 hPa 0,2 l/m N 0,00 h 0 W/m 0,3 km/h (0 Bft)
06.04.2011 04:00 9,2 C 91 % 1027,1 hPa 0,0 l/m N 0,00 h 0 W/m 0,7 km/h (0 Bft)
06.04.2011 05:00 9,3 C 90 % 1027,3 hPa 0,0 l/m N 0,00 h 0 W/m 1,9 km/h (1 Bft)
06.04.2011 06:00 9,2 C 89 % 1027,8 hPa 0,0 l/m N 0,00 h 0 W/m 0,5 km/h (0 Bft)
06.04.2011 07:00 9,2 C 89 % 1028,2 hPa 0,0 l/m N 0,00 h 14 W/m 0,1 km/h (0 Bft)
06.04.2011 08:00 9,7 C 87 % 1028,5 hPa 0,0 l/m N 0,00 h 35 W/m 1,7 km/h (1 Bft)
06.04.2011 09:00 10,6 C 82 % 1028,7 hPa 0,0 l/m W-NW 0,00 h 120 W/m 3,1 km/h (1 Bft)
06.04.2011 10:00 12,2 C 72 % 1028,9 hPa 0,0 l/m W-NW 0,00 h 184 W/m 5,2 km/h (1 Bft)
06.04.2011 11:00 13,4 C 67 % 1029,1 hPa 0,0 l/m W 0,33 h 313 W/m 4,8 km/h (1 Bft)
06.04.2011 12:00 14,9 C 60 % 1028,9 hPa 0,0 l/m W-SW 0,58 h 438 W/m 7,2 km/h (2 Bft)
06.04.2011 13:00 17,0 C 56 % 1028,8 hPa 0,0 l/m W-SW 1,00 h 788 W/m 12,0 km/h (2 Bft)
06.04.2011 14:00 17,8 C 58 % 1028,2 hPa 0,0 l/m S-SW 1,00 h 739 W/m 15,6 km/h (3 Bft)
06.04.2011 15:00 18,5 C 57 % 1027,8 hPa 0,0 l/m S-SW 1,00 h 641 W/m 11,4 km/h (2 Bft)
06.04.2011 16:00 19,1 C 55 % 1027,4 hPa 0,0 l/m SW 1,00 h 528 W/m 9,9 km/h (2 Bft)
06.04.2011 17:00 19,5 C 54 % 1027,0 hPa 0,0 l/m S 1,00 h 369 W/m 9,1 km/h (2 Bft)
06.04.2011 18:00 18,9 C 58 % 1026,9 hPa 0,0 l/m S-SW 0,58 h 142 W/m 7,4 km/h (2 Bft)
06.04.2011 19:00 17,0 C 64 % 1027,0 hPa 0,0 l/m SW 0,00 h 24 W/m 2,9 km/h (1 Bft)
06.04.2011 20:00 14,2 C 76 % 1027,0 hPa 0,0 l/m N 0,00 h 0 W/m 0,0 km/h (0 Bft)
06.04.2011 21:00 12,7 C 81 % 1027,2 hPa 0,0 l/m N 0,00 h 0 W/m 0,0 km/h (0 Bft)
06.04.2011 22:00 11,5 C 86 % 1027,2 hPa 0,0 l/m N 0,00 h 0 W/m 0,0 km/h (0 Bft)
06.04.2011 23:00 10,7 C 88 % 1027,1 hPa 0,0 l/m N 0,00 h 0 W/m 0,0 km/h (0 Bft)
07.04.2011 00:00 9,8 C 90 % 1027,1 hPa 0,0 l/m N 0,00 h 0 W/m 0,0 km/h (0 Bft)
07.04.2011 01:00 9,2 C 92 % 1026,8 hPa 0,0 l/m N 0,00 h 0 W/m 0,0 km/h (0 Bft)
07.04.2011 02:00 8,5 C 93 % 1026,4 hPa 0,0 l/m N 0,00 h 0 W/m 0,0 km/h (0 Bft)
07.04.2011 03:00 7,9 C 95 % 1026,0 hPa 0,0 l/m N 0,00 h 0 W/m 0,0 km/h (0 Bft)
07.04.2011 04:00 7,3 C 96 % 1025,5 hPa 0,0 l/m N 0,00 h 0 W/m 0,0 km/h (0 Bft)
07.04.2011 05:00 6,9 C 96 % 1025,3 hPa 0,0 l/m N 0,00 h 0 W/m 0,0 km/h (0 Bft)
07.04.2011 06:00 6,7 C 96 % 1025,3 hPa 0,0 l/m N 0,00 h 5 W/m 0,1 km/h (0 Bft)
07.04.2011 07:00 6,3 C 97 % 1025,2 hPa 0,0 l/m N 0,17 h 57 W/m 0,0 km/h (0 Bft)
07.04.2011 08:00 8,6 C 94 % 1025,4 hPa 0,0 l/m N 1,00 h 227 W/m 0,9 km/h (0 Bft)
07.04.2011 09:00 12,9 C 77 % 1025,3 hPa 0,0 l/m SW 1,00 h 468 W/m 12,5 km/h (3 Bft)
07.04.2011 10:00 14,9 C 74 % 1025,2 hPa 0,0 l/m S-SW 1,00 h 628 W/m 12,6 km/h (3 Bft)
07.04.2011 11:00 17,4 C 70 % 1025,0 hPa 0,0 l/m S 1,00 h 777 W/m 13,4 km/h (3 Bft)
07.04.2011 12:00 19,8 C 65 % 1024,2 hPa 0,0 l/m S 1,00 h 841 W/m 17,4 km/h (3 Bft)
07.04.2011 13:00 21,9 C 53 % 1022,9 hPa 0,0 l/m W-SW 1,00 h 850 W/m 22,1 km/h (4 Bft)
07.04.2011 14:00 22,8 C 45 % 1022,2 hPa 0,0 l/m SW 1,00 h 783 W/m 22,9 km/h (4 Bft)
07.04.2011 15:00 23,3 C 45 % 1021,8 hPa 0,0 l/m W-SW 1,00 h 663 W/m 22,2 km/h (4 Bft)
07.04.2011 16:00 23,6 C 43 % 1020,9 hPa 0,0 l/m W 1,00 h 517 W/m 21,4 km/h (4 Bft)
07.04.2011 17:00 23,8 C 42 % 1020,6 hPa 0,0 l/m W-NW 0,83 h 291 W/m 16,8 km/h (3 Bft)
07.04.2011 18:00 22,5 C 42 % 1020,5 hPa 0,0 l/m W-NW 0,50 h 136 W/m 18,9 km/h (3 Bft)
07.04.2011 19:00 20,6 C 49 % 1020,7 hPa 0,0 l/m NW 0,00 h 28 W/m 15,8 km/h (3 Bft)
07.04.2011 20:00 19,1 C 57 % 1021,3 hPa 0,0 l/m W-NW 0,00 h 5 W/m 10,1 km/h (2 Bft)
07.04.2011 21:00 17,5 C 63 % 1021,7 hPa 0,0 l/m N-NW 0,00 h 0 W/m 8,2 km/h (2 Bft)
07.04.2011 22:00 17,1 C 63 % 1021,9 hPa 0,0 l/m W-NW 0,00 h 0 W/m 10,8 km/h (2 Bft)
07.04.2011 23:00 16,3 C 58 % 1021,7 hPa 0,0 l/m W 0,00 h 0 W/m 14,1 km/h (3 Bft)
08.04.2011 00:00 15,0 C 62 % 1021,8 hPa 0,0 l/m NW 0,00 h 0 W/m 7,0 km/h (2 Bft)
08.04.2011 01:00 13,3 C 66 % 1021,8 hPa 0,0 l/m W-NW 0,00 h 0 W/m 2,0 km/h (1 Bft)
08.04.2011 02:00 10,8 C 79 % 1022,0 hPa 0,0 l/m N 0,00 h 0 W/m 0,5 km/h (0 Bft)
08.04.2011 03:00 9,4 C 83 % 1022,0 hPa 0,0 l/m N 0,00 h 0 W/m 0,1 km/h (0 Bft)
08.04.2011 04:00 9,0 C 84 % 1022,0 hPa 0,0 l/m N 0,00 h 0 W/m 0,9 km/h (0 Bft)
08.04.2011 05:00 8,7 C 86 % 1021,7 hPa 0,0 l/m N 0,00 h 0 W/m 1,3 km/h (1 Bft)
08.04.2011 06:00 9,0 C 85 % 1021,7 hPa 0,0 l/m W-NW 0,00 h 6 W/m 3,5 km/h (1 Bft)
08.04.2011 07:00 9,3 C 86 % 1021,9 hPa 0,0 l/m N-NW 0,00 h 47 W/m 5,9 km/h (2 Bft)
08.04.2011 08:00 10,8 C 84 % 1022,2 hPa 0,0 l/m N 0,00 h 76 W/m 8,2 km/h (2 Bft)
08.04.2011 09:00 11,6 C 82 % 1022,3 hPa 0,0 l/m N-NO 0,00 h 70 W/m 6,8 km/h (2 Bft)
08.04.2011 10:00 12,8 C 78 % 1022,2 hPa 0,0 l/m N 0,00 h 196 W/m 5,3 km/h (1 Bft)
08.04.2011 11:00 14,3 C 71 % 1022,0 hPa 0,0 l/m N-NO 0,50 h 461 W/m 5,7 km/h (1 Bft)
08.04.2011 12:00 15,7 C 65 % 1021,3 hPa 0,0 l/m W-NW 0,42 h 396 W/m 8,9 km/h (2 Bft)
08.04.2011 13:00 16,5 C 62 % 1020,4 hPa 0,0 l/m W-NW 0,50 h 485 W/m 10,7 km/h (2 Bft)
08.04.2011 14:00 17,9 C 56 % 1019,7 hPa 0,0 l/m W-NW 0,92 h 766 W/m 12,4 km/h (3 Bft)
08.04.2011 15:00 18,8 C 52 % 1019,1 hPa 0,0 l/m W-NW 0,67 h 531 W/m 13,3 km/h (3 Bft)
08.04.2011 16:00 19,2 C 50 % 1018,7 hPa 0,0 l/m W-NW 0,92 h 497 W/m 11,6 km/h (2 Bft)
08.04.2011 17:00 19,7 C 44 % 1018,4 hPa 0,0 l/m N 1,00 h 372 W/m 11,1 km/h (2 Bft)
08.04.2011 18:00 19,0 C 44 % 1018,4 hPa 0,0 l/m N-NW 1,00 h 184 W/m 10,2 km/h (2 Bft)
08.04.2011 19:00 17,4 C 53 % 1018,6 hPa 0,0 l/m N 0,00 h 23 W/m 6,3 km/h (2 Bft)
08.04.2011 20:00 15,0 C 62 % 1019,5 hPa 0,0 l/m N 0,00 h 0 W/m 7,1 km/h (2 Bft)
08.04.2011 21:00 12,7 C 64 % 1020,2 hPa 0,0 l/m N 0,00 h 0 W/m 2,7 km/h (1 Bft)
08.04.2011 22:00 10,4 C 67 % 1020,7 hPa 0,0 l/m N 0,00 h 0 W/m 0,3 km/h (0 Bft)
08.04.2011 23:00 9,1 C 69 % 1021,0 hPa 0,0 l/m N 0,00 h 0 W/m 0,3 km/h (0 Bft)
09.04.2011 00:00 8,1 C 75 % 1021,3 hPa 0,0 l/m N 0,00 h 0 W/m 0,0 km/h (0 Bft)
09.04.2011 01:00 7,1 C 77 % 1021,4 hPa 0,0 l/m N 0,00 h 0 W/m 0,0 km/h (0 Bft)
09.04.2011 02:00 6,5 C 80 % 1021,4 hPa 0,0 l/m N 0,00 h 0 W/m 0,0 km/h (0 Bft)
09.04.2011 03:00 5,8 C 83 % 1021,4 hPa 0,0 l/m N 0,00 h 0 W/m 0,3 km/h (0 Bft)
09.04.2011 04:00 5,2 C 86 % 1021,4 hPa 0,0 l/m N 0,00 h 0 W/m 0,1 km/h (0 Bft)
09.04.2011 05:00 4,4 C 90 % 1020,9 hPa 0,0 l/m N 0,00 h 0 W/m 1,1 km/h (0 Bft)
09.04.2011 06:00 3,8 C 92 % 1020,8 hPa 0,0 l/m N 0,08 h 7 W/m 2,8 km/h (1 Bft)
09.04.2011 07:00 4,3 C 91 % 1020,7 hPa 0,0 l/m N 0,58 h 75 W/m 1,3 km/h (1 Bft)
09.04.2011 08:00 7,5 C 82 % 1020,9 hPa 0,0 l/m N-NO 1,00 h 280 W/m 2,9 km/h (1 Bft)
09.04.2011 09:00 12,0 C 71 % 1020,9 hPa 0,0 l/m SO 1,00 h 482 W/m 3,3 km/h (1 Bft)
09.04.2011 10:00 14,8 C 65 % 1020,9 hPa 0,0 l/m SO 1,00 h 648 W/m 7,3 km/h (2 Bft)
09.04.2011 11:00 16,2 C 57 % 1020,8 hPa 0,0 l/m N-NO 1,00 h 776 W/m 9,0 km/h (2 Bft)
09.04.2011 12:00 17,5 C 54 % 1020,4 hPa 0,0 l/m N-NO 1,00 h 840 W/m 10,2 km/h (2 Bft)
09.04.2011 13:00 18,7 C 50 % 1020,1 hPa 0,0 l/m N-NO 1,00 h 846 W/m 10,6 km/h (2 Bft)
09.04.2011 14:00 19,5 C 44 % 1019,8 hPa 0,0 l/m N-NO 1,00 h 766 W/m 13,0 km/h (3 Bft)
09.04.2011 15:00 20,0 C 43 % 1019,5 hPa 0,0 l/m NO 1,00 h 656 W/m 12,5 km/h (3 Bft)
09.04.2011 16:00 20,3 C 38 % 1019,1 hPa 0,0 l/m N-NO 1,00 h 539 W/m 12,2 km/h (2 Bft)
09.04.2011 17:00 20,2 C 33 % 1018,8 hPa 0,0 l/m N-NO 0,92 h 350 W/m 14,1 km/h (3 Bft)
09.04.2011 18:00 18,9 C 31 % 1018,9 hPa 0,0 l/m O-NO 0,25 h 106 W/m 11,2 km/h (2 Bft)
09.04.2011 19:00 17,3 C 42 % 1019,0 hPa 0,0 l/m NO 0,17 h 38 W/m 6,7 km/h (2 Bft)
09.04.2011 20:00 14,8 C 50 % 1019,6 hPa 0,0 l/m N-NO 0,00 h 5 W/m 4,8 km/h (1 Bft)
09.04.2011 21:00 12,6 C 54 % 1020,2 hPa 0,0 l/m N-NO 0,00 h 0 W/m 3,5 km/h (1 Bft)
09.04.2011 22:00 10,9 C 61 % 1020,4 hPa 0,0 l/m N 0,00 h 0 W/m 2,0 km/h (1 Bft)
09.04.2011 23:00 9,4 C 64 % 1020,6 hPa 0,0 l/m N 0,00 h 0 W/m 1,7 km/h (1 Bft)
10.04.2011 00:00 8,7 C 65 % 1020,7 hPa 0,0 l/m N-NO 0,00 h 0 W/m 3,3 km/h (1 Bft)
10.04.2011 01:00 7,7 C 69 % 1020,8 hPa 0,0 l/m N 0,00 h 0 W/m 1,2 km/h (1 Bft)
10.04.2011 02:00 7,0 C 73 % 1020,6 hPa 0,0 l/m N 0,00 h 0 W/m 1,6 km/h (1 Bft)
10.04.2011 03:00 6,5 C 74 % 1020,5 hPa 0,0 l/m N-NO 0,00 h 0 W/m 1,5 km/h (1 Bft)
10.04.2011 04:00 5,8 C 76 % 1020,4 hPa 0,0 l/m N 0,00 h 0 W/m 2,0 km/h (1 Bft)
10.04.2011 05:00 6,0 C 74 % 1020,5 hPa 0,0 l/m N-NW 0,00 h 0 W/m 6,1 km/h (2 Bft)
10.04.2011 06:00 5,6 C 76 % 1020,5 hPa 0,0 l/m N-NW 0,08 h 9 W/m 3,6 km/h (1 Bft)
10.04.2011 07:00 5,4 C 78 % 1020,8 hPa 0,0 l/m N 0,58 h 78 W/m 1,9 km/h (1 Bft)
10.04.2011 08:00 8,1 C 67 % 1021,2 hPa 0,0 l/m N-NW 1,00 h 282 W/m 4,0 km/h (1 Bft)
10.04.2011 09:00 10,8 C 59 % 1021,0 hPa 0,0 l/m N-NO 1,00 h 489 W/m 5,9 km/h (2 Bft)
10.04.2011 10:00 13,6 C 50 % 1021,0 hPa 0,0 l/m O-NO 1,00 h 660 W/m 7,8 km/h (2 Bft)
10.04.2011 11:00 15,5 C 43 % 1021,2 hPa 0,0 l/m O-NO 1,00 h 772 W/m 12,6 km/h (3 Bft)
10.04.2011 12:00 16,5 C 39 % 1021,0 hPa 0,0 l/m O-NO 1,00 h 836 W/m 14,6 km/h (3 Bft)
10.04.2011 13:00 17,7 C 35 % 1020,7 hPa 0,0 l/m O 1,00 h 846 W/m 15,8 km/h (3 Bft)
10.04.2011 14:00 18,8 C 35 % 1020,4 hPa 0,0 l/m O-SO 1,00 h 771 W/m 16,5 km/h (3 Bft)
10.04.2011 15:00 19,3 C 35 % 1020,0 hPa 0,0 l/m NO 1,00 h 671 W/m 19,0 km/h (3 Bft)
10.04.2011 16:00 19,2 C 36 % 1019,7 hPa 0,0 l/m O-NO 1,00 h 533 W/m 17,7 km/h (3 Bft)
10.04.2011 17:00 18,9 C 37 % 1019,7 hPa 0,0 l/m O-NO 1,00 h 368 W/m 16,2 km/h (3 Bft)
10.04.2011 18:00 18,2 C 39 % 1019,8 hPa 0,0 l/m O-NO 0,92 h 181 W/m 14,8 km/h (3 Bft)
10.04.2011 19:00 16,7 C 42 % 1020,1 hPa 0,0 l/m O-NO 0,00 h 30 W/m 9,9 km/h (2 Bft)
10.04.2011 20:00 13,6 C 54 % 1020,8 hPa 0,0 l/m N 0,00 h 5 W/m 1,6 km/h (1 Bft)
10.04.2011 21:00 11,4 C 60 % 1021,4 hPa 0,0 l/m N 0,00 h 0 W/m 1,6 km/h (1 Bft)
10.04.2011 22:00 10,4 C 64 % 1021,7 hPa 0,0 l/m N 0,00 h 0 W/m 1,6 km/h (1 Bft)
10.04.2011 23:00 9,5 C 65 % 1021,7 hPa 0,0 l/m N 0,00 h 0 W/m 1,2 km/h (1 Bft)
Min-Datum _ 09.04.11 09.04.11 04.04.11 - - - - 04.04.11
_ Min-Zeit 06:55 18:00 04:55 - - - - 01:35
Minimum _ 3,5 C 28 % 1010,6 hPa - - - - 0,0 km/h (0 Bft)
Max-Datum _ 07.04.11 05.04.11 06.04.11 04.04.11 - 04.04.11 05.04.11 04.04.11
_ Max-Zeit 17:25 08:15 11:15 07:45 - 13:40 12:30 06:45
Maximum _ 24,2 C 99 % 1029,2 hPa 3,4 l/m - 0,08 h 972 W/m 33,8 km/h
N-NW (5 Bft)
Durchschnitt _ 12,2 C 71 % 1022,6 hPa #15,6 l/m SW #53:45 h 344 W/m 7,5 km/h (2 Bft)